sensor_id;sensor_type;location;lat;lon;timestamp;P1;durP1;ratioP1;P2;durP2;ratioP2
8574;SDS011;4325;42.520;27.448;2023-01-30T00:00:52;22.63;;;11.37;;
8574;SDS011;4325;42.520;27.448;2023-01-30T00:03:20;18.20;;;11.03;;
8574;SDS011;4325;42.520;27.448;2023-01-30T00:05:48;19.20;;;10.83;;
8574;SDS011;4325;42.520;27.448;2023-01-30T00:08:16;17.67;;;11.13;;
8574;SDS011;4325;42.520;27.448;2023-01-30T00:10:43;19.27;;;10.87;;
8574;SDS011;4325;42.520;27.448;2023-01-30T00:13:11;16.60;;;10.67;;
8574;SDS011;4325;42.520;27.448;2023-01-30T00:15:38;17.30;;;10.97;;
8574;SDS011;4325;42.520;27.448;2023-01-30T00:18:05;16.60;;;10.40;;
8574;SDS011;4325;42.520;27.448;2023-01-30T00:20:32;17.00;;;10.47;;
8574;SDS011;4325;42.520;27.448;2023-01-30T00:22:59;17.23;;;10.50;;
8574;SDS011;4325;42.520;27.448;2023-01-30T00:25:28;17.30;;;10.57;;
8574;SDS011;4325;42.520;27.448;2023-01-30T00:27:57;19.03;;;10.77;;
8574;SDS011;4325;42.520;27.448;2023-01-30T00:30:24;18.03;;;9.90;;
8574;SDS011;4325;42.520;27.448;2023-01-30T00:32:52;15.97;;;10.17;;
8574;SDS011;4325;42.520;27.448;2023-01-30T00:35:20;17.87;;;10.60;;
8574;SDS011;4325;42.520;27.448;2023-01-30T00:37:52;16.63;;;10.73;;
8574;SDS011;4325;42.520;27.448;2023-01-30T00:40:20;15.50;;;10.87;;
8574;SDS011;4325;42.520;27.448;2023-01-30T00:42:48;20.07;;;11.43;;
8574;SDS011;4325;42.520;27.448;2023-01-30T00:45:32;18.97;;;10.93;;
8574;SDS011;4325;42.520;27.448;2023-01-30T00:48:17;16.27;;;10.80;;
8574;SDS011;4325;42.520;27.448;2023-01-30T00:50:44;19.50;;;11.60;;
8574;SDS011;4325;42.520;27.448;2023-01-30T00:53:11;20.63;;;10.97;;
8574;SDS011;4325;42.520;27.448;2023-01-30T00:55:39;18.47;;;11.43;;
8574;SDS011;4325;42.520;27.448;2023-01-30T00:58:08;24.60;;;15.03;;
8574;SDS011;4325;42.520;27.448;2023-01-30T01:00:35;21.67;;;11.67;;
8574;SDS011;4325;42.520;27.448;2023-01-30T01:03:02;19.77;;;11.87;;
8574;SDS011;4325;42.520;27.448;2023-01-30T01:05:29;15.50;;;10.40;;
8574;SDS011;4325;42.520;27.448;2023-01-30T01:07:56;19.27;;;12.83;;
8574;SDS011;4325;42.520;27.448;2023-01-30T01:10:23;19.00;;;12.10;;
8574;SDS011;4325;42.520;27.448;2023-01-30T01:12:50;19.07;;;11.80;;
8574;SDS011;4325;42.520;27.448;2023-01-30T01:15:19;17.97;;;12.20;;
8574;SDS011;4325;42.520;27.448;2023-01-30T01:17:47;19.90;;;11.17;;
8574;SDS011;4325;42.520;27.448;2023-01-30T01:20:15;19.77;;;11.97;;
8574;SDS011;4325;42.520;27.448;2023-01-30T01:22:42;21.13;;;11.63;;
8574;SDS011;4325;42.520;27.448;2023-01-30T01:25:09;19.40;;;11.63;;
8574;SDS011;4325;42.520;27.448;2023-01-30T01:27:36;18.10;;;11.40;;
8574;SDS011;4325;42.520;27.448;2023-01-30T01:30:04;18.67;;;11.47;;
8574;SDS011;4325;42.520;27.448;2023-01-30T01:32:33;19.97;;;11.80;;
8574;SDS011;4325;42.520;27.448;2023-01-30T01:35:00;20.50;;;11.10;;
8574;SDS011;4325;42.520;27.448;2023-01-30T01:37:27;18.43;;;11.17;;
8574;SDS011;4325;42.520;27.448;2023-01-30T01:39:54;21.70;;;11.93;;
8574;SDS011;4325;42.520;27.448;2023-01-30T01:42:38;19.80;;;11.97;;
8574;SDS011;4325;42.520;27.448;2023-01-30T01:45:16;15.93;;;10.87;;
8574;SDS011;4325;42.520;27.448;2023-01-30T01:47:48;19.63;;;12.30;;
8574;SDS011;4325;42.520;27.448;2023-01-30T01:50:21;20.70;;;12.50;;
8574;SDS011;4325;42.520;27.448;2023-01-30T01:52:51;22.10;;;12.57;;
8574;SDS011;4325;42.520;27.448;2023-01-30T01:55:25;19.47;;;12.23;;
8574;SDS011;4325;42.520;27.448;2023-01-30T01:57:53;19.80;;;12.03;;
8574;SDS011;4325;42.520;27.448;2023-01-30T02:00:23;18.57;;;11.63;;
8574;SDS011;4325;42.520;27.448;2023-01-30T02:02:53;23.70;;;13.80;;
8574;SDS011;4325;42.520;27.448;2023-01-30T02:05:23;18.93;;;11.80;;
8574;SDS011;4325;42.520;27.448;2023-01-30T02:07:54;20.00;;;12.60;;
8574;SDS011;4325;42.520;27.448;2023-01-30T02:10:27;18.87;;;11.77;;
8574;SDS011;4325;42.520;27.448;2023-01-30T02:13:02;17.93;;;11.83;;
8574;SDS011;4325;42.520;27.448;2023-01-30T02:15:29;19.57;;;12.83;;
8574;SDS011;4325;42.520;27.448;2023-01-30T02:17:57;19.43;;;11.60;;
8574;SDS011;4325;42.520;27.448;2023-01-30T02:20:26;20.03;;;12.47;;
8574;SDS011;4325;42.520;27.448;2023-01-30T02:26:33;18.13;;;11.70;;
8574;SDS011;4325;42.520;27.448;2023-01-30T02:29:29;17.83;;;10.93;;
8574;SDS011;4325;42.520;27.448;2023-01-30T02:32:13;20.27;;;11.03;;
8574;SDS011;4325;42.520;27.448;2023-01-30T02:34:52;16.43;;;10.07;;
8574;SDS011;4325;42.520;27.448;2023-01-30T02:37:32;16.07;;;9.07;;
8574;SDS011;4325;42.520;27.448;2023-01-30T02:40:14;17.23;;;10.43;;
8574;SDS011;4325;42.520;27.448;2023-01-30T02:42:53;14.93;;;9.33;;
8574;SDS011;4325;42.520;27.448;2023-01-30T02:45:31;14.93;;;9.77;;
8574;SDS011;4325;42.520;27.448;2023-01-30T02:48:03;16.83;;;9.37;;
8574;SDS011;4325;42.520;27.448;2023-01-30T02:50:33;14.40;;;9.13;;
8574;SDS011;4325;42.520;27.448;2023-01-30T02:53:05;14.00;;;8.93;;
8574;SDS011;4325;42.520;27.448;2023-01-30T02:55:32;14.80;;;9.30;;
8574;SDS011;4325;42.520;27.448;2023-01-30T02:58:01;17.43;;;9.83;;
8574;SDS011;4325;42.520;27.448;2023-01-30T03:00:37;15.43;;;10.13;;
8574;SDS011;4325;42.520;27.448;2023-01-30T03:03:19;20.67;;;10.80;;
8574;SDS011;4325;42.520;27.448;2023-01-30T03:06:11;17.27;;;10.30;;
8574;SDS011;4325;42.520;27.448;2023-01-30T03:08:50;18.93;;;11.40;;
8574;SDS011;4325;42.520;27.448;2023-01-30T03:11:28;19.47;;;11.70;;
8574;SDS011;4325;42.520;27.448;2023-01-30T03:14:06;18.93;;;10.77;;
8574;SDS011;4325;42.520;27.448;2023-01-30T03:16:43;17.07;;;10.73;;
8574;SDS011;4325;42.520;27.448;2023-01-30T03:19:14;19.23;;;11.53;;
8574;SDS011;4325;42.520;27.448;2023-01-30T03:21:44;17.87;;;10.93;;
8574;SDS011;4325;42.520;27.448;2023-01-30T03:24:11;17.30;;;10.83;;
8574;SDS011;4325;42.520;27.448;2023-01-30T03:26:39;21.17;;;10.77;;
8574;SDS011;4325;42.520;27.448;2023-01-30T03:29:10;18.07;;;10.90;;
8574;SDS011;4325;42.520;27.448;2023-01-30T03:31:36;15.10;;;9.90;;
8574;SDS011;4325;42.520;27.448;2023-01-30T03:34:03;16.13;;;10.17;;
8574;SDS011;4325;42.520;27.448;2023-01-30T03:36:31;14.97;;;9.73;;
8574;SDS011;4325;42.520;27.448;2023-01-30T03:38:58;15.17;;;8.87;;
8574;SDS011;4325;42.520;27.448;2023-01-30T03:41:25;13.80;;;9.20;;
8574;SDS011;4325;42.520;27.448;2023-01-30T03:43:53;14.77;;;9.50;;
8574;SDS011;4325;42.520;27.448;2023-01-30T03:46:19;14.23;;;8.70;;
8574;SDS011;4325;42.520;27.448;2023-01-30T03:48:46;16.07;;;9.43;;
8574;SDS011;4325;42.520;27.448;2023-01-30T03:51:13;13.40;;;8.43;;
8574;SDS011;4325;42.520;27.448;2023-01-30T03:53:41;13.10;;;8.30;;
8574;SDS011;4325;42.520;27.448;2023-01-30T03:56:08;22.23;;;9.53;;
8574;SDS011;4325;42.520;27.448;2023-01-30T03:58:35;13.63;;;8.63;;
8574;SDS011;4325;42.520;27.448;2023-01-30T04:01:02;14.83;;;9.00;;
8574;SDS011;4325;42.520;27.448;2023-01-30T04:03:29;15.07;;;8.70;;
8574;SDS011;4325;42.520;27.448;2023-01-30T04:05:55;14.40;;;8.27;;
8574;SDS011;4325;42.520;27.448;2023-01-30T04:08:22;14.47;;;8.50;;
8574;SDS011;4325;42.520;27.448;2023-01-30T04:10:50;17.60;;;9.33;;
8574;SDS011;4325;42.520;27.448;2023-01-30T04:13:17;15.17;;;9.40;;
8574;SDS011;4325;42.520;27.448;2023-01-30T04:15:44;15.43;;;9.63;;
8574;SDS011;4325;42.520;27.448;2023-01-30T04:18:11;15.73;;;9.37;;
8574;SDS011;4325;42.520;27.448;2023-01-30T04:20:38;20.80;;;10.00;;
8574;SDS011;4325;42.520;27.448;2023-01-30T04:23:04;18.43;;;10.47;;
8574;SDS011;4325;42.520;27.448;2023-01-30T04:25:31;17.87;;;10.40;;
8574;SDS011;4325;42.520;27.448;2023-01-30T04:28:00;19.10;;;11.17;;
8574;SDS011;4325;42.520;27.448;2023-01-30T04:30:26;19.83;;;10.17;;
8574;SDS011;4325;42.520;27.448;2023-01-30T04:32:53;19.83;;;11.83;;
8574;SDS011;4325;42.520;27.448;2023-01-30T04:35:20;18.43;;;12.17;;
8574;SDS011;4325;42.520;27.448;2023-01-30T04:37:47;21.53;;;11.47;;
8574;SDS011;4325;42.520;27.448;2023-01-30T04:40:14;20.27;;;12.70;;
8574;SDS011;4325;42.520;27.448;2023-01-30T04:42:40;21.37;;;12.43;;
8574;SDS011;4325;42.520;27.448;2023-01-30T04:45:09;21.27;;;11.90;;
8574;SDS011;4325;42.520;27.448;2023-01-30T04:47:36;22.20;;;12.07;;
8574;SDS011;4325;42.520;27.448;2023-01-30T04:50:03;22.13;;;12.70;;
8574;SDS011;4325;42.520;27.448;2023-01-30T04:52:31;19.20;;;11.63;;
8574;SDS011;4325;42.520;27.448;2023-01-30T04:54:58;18.93;;;12.07;;
8574;SDS011;4325;42.520;27.448;2023-01-30T04:57:24;20.93;;;12.20;;
8574;SDS011;4325;42.520;27.448;2023-01-30T04:59:51;19.57;;;11.17;;
8574;SDS011;4325;42.520;27.448;2023-01-30T05:02:19;21.70;;;12.10;;
8574;SDS011;4325;42.520;27.448;2023-01-30T05:04:47;21.10;;;11.63;;
8574;SDS011;4325;42.520;27.448;2023-01-30T05:07:14;19.10;;;11.60;;
8574;SDS011;4325;42.520;27.448;2023-01-30T05:09:41;20.37;;;11.47;;
8574;SDS011;4325;42.520;27.448;2023-01-30T05:12:08;23.37;;;13.77;;
8574;SDS011;4325;42.520;27.448;2023-01-30T05:14:35;27.40;;;15.30;;
8574;SDS011;4325;42.520;27.448;2023-01-30T05:17:05;22.40;;;13.33;;
8574;SDS011;4325;42.520;27.448;2023-01-30T05:19:33;23.57;;;12.13;;
8574;SDS011;4325;42.520;27.448;2023-01-30T05:22:00;19.73;;;11.27;;
8574;SDS011;4325;42.520;27.448;2023-01-30T05:24:27;22.57;;;12.97;;
8574;SDS011;4325;42.520;27.448;2023-01-30T05:26:54;21.03;;;12.40;;
8574;SDS011;4325;42.520;27.448;2023-01-30T05:29:21;18.50;;;11.50;;
8574;SDS011;4325;42.520;27.448;2023-01-30T05:31:48;19.13;;;11.90;;
8574;SDS011;4325;42.520;27.448;2023-01-30T05:34:15;20.90;;;12.47;;
8574;SDS011;4325;42.520;27.448;2023-01-30T05:36:43;22.17;;;12.00;;
8574;SDS011;4325;42.520;27.448;2023-01-30T05:39:10;22.23;;;11.93;;
8574;SDS011;4325;42.520;27.448;2023-01-30T05:41:37;20.03;;;12.33;;
8574;SDS011;4325;42.520;27.448;2023-01-30T05:44:04;23.10;;;11.97;;
8574;SDS011;4325;42.520;27.448;2023-01-30T05:46:30;32.67;;;17.27;;
8574;SDS011;4325;42.520;27.448;2023-01-30T05:48:57;33.57;;;18.63;;
8574;SDS011;4325;42.520;27.448;2023-01-30T05:51:25;32.13;;;17.77;;
8574;SDS011;4325;42.520;27.448;2023-01-30T05:53:54;31.77;;;16.47;;
8574;SDS011;4325;42.520;27.448;2023-01-30T05:56:20;25.83;;;14.83;;
8574;SDS011;4325;42.520;27.448;2023-01-30T05:58:51;19.30;;;11.53;;
8574;SDS011;4325;42.520;27.448;2023-01-30T06:01:18;21.00;;;12.07;;
8574;SDS011;4325;42.520;27.448;2023-01-30T06:03:46;21.53;;;13.47;;
8574;SDS011;4325;42.520;27.448;2023-01-30T06:06:13;20.37;;;12.20;;
8574;SDS011;4325;42.520;27.448;2023-01-30T06:08:40;22.33;;;12.57;;
8574;SDS011;4325;42.520;27.448;2023-01-30T06:11:09;26.07;;;13.13;;
8574;SDS011;4325;42.520;27.448;2023-01-30T06:13:38;23.27;;;13.53;;
8574;SDS011;4325;42.520;27.448;2023-01-30T06:16:06;23.67;;;13.63;;
8574;SDS011;4325;42.520;27.448;2023-01-30T06:18:34;27.33;;;13.67;;
8574;SDS011;4325;42.520;27.448;2023-01-30T06:21:01;26.30;;;14.37;;
8574;SDS011;4325;42.520;27.448;2023-01-30T06:23:28;23.00;;;13.57;;
8574;SDS011;4325;42.520;27.448;2023-01-30T06:25:55;27.07;;;15.80;;
8574;SDS011;4325;42.520;27.448;2023-01-30T06:28:24;36.73;;;18.70;;
8574;SDS011;4325;42.520;27.448;2023-01-30T06:30:51;31.70;;;17.53;;
8574;SDS011;4325;42.520;27.448;2023-01-30T06:33:18;36.70;;;20.03;;
8574;SDS011;4325;42.520;27.448;2023-01-30T06:35:47;31.47;;;17.53;;
8574;SDS011;4325;42.520;27.448;2023-01-30T06:38:14;30.80;;;16.83;;
8574;SDS011;4325;42.520;27.448;2023-01-30T06:40:43;31.87;;;17.83;;
8574;SDS011;4325;42.520;27.448;2023-01-30T06:43:11;27.03;;;15.10;;
8574;SDS011;4325;42.520;27.448;2023-01-30T06:45:40;30.97;;;16.40;;
8574;SDS011;4325;42.520;27.448;2023-01-30T06:48:07;30.47;;;16.50;;
8574;SDS011;4325;42.520;27.448;2023-01-30T06:50:34;41.27;;;23.00;;
8574;SDS011;4325;42.520;27.448;2023-01-30T06:53:02;55.27;;;28.73;;
8574;SDS011;4325;42.520;27.448;2023-01-30T06:55:31;40.13;;;22.27;;
8574;SDS011;4325;42.520;27.448;2023-01-30T06:58:00;42.33;;;24.63;;
8574;SDS011;4325;42.520;27.448;2023-01-30T07:00:28;43.03;;;25.50;;
8574;SDS011;4325;42.520;27.448;2023-01-30T07:02:57;38.00;;;19.47;;
8574;SDS011;4325;42.520;27.448;2023-01-30T07:05:24;38.87;;;20.23;;
8574;SDS011;4325;42.520;27.448;2023-01-30T07:07:50;31.97;;;16.63;;
8574;SDS011;4325;42.520;27.448;2023-01-30T07:10:17;32.37;;;16.27;;
8574;SDS011;4325;42.520;27.448;2023-01-30T07:12:44;32.10;;;17.10;;
8574;SDS011;4325;42.520;27.448;2023-01-30T07:15:11;30.77;;;17.23;;
8574;SDS011;4325;42.520;27.448;2023-01-30T07:17:39;31.70;;;16.77;;
8574;SDS011;4325;42.520;27.448;2023-01-30T07:20:08;29.30;;;16.10;;
8574;SDS011;4325;42.520;27.448;2023-01-30T07:22:36;28.50;;;16.23;;
8574;SDS011;4325;42.520;27.448;2023-01-30T07:25:03;26.37;;;14.57;;
8574;SDS011;4325;42.520;27.448;2023-01-30T07:27:31;24.20;;;14.43;;
8574;SDS011;4325;42.520;27.448;2023-01-30T07:29:58;24.23;;;14.90;;
8574;SDS011;4325;42.520;27.448;2023-01-30T07:32:25;22.17;;;13.33;;
8574;SDS011;4325;42.520;27.448;2023-01-30T07:34:52;22.20;;;13.90;;
8574;SDS011;4325;42.520;27.448;2023-01-30T07:37:21;24.13;;;13.60;;
8574;SDS011;4325;42.520;27.448;2023-01-30T07:39:47;23.20;;;13.27;;
8574;SDS011;4325;42.520;27.448;2023-01-30T07:42:15;26.03;;;14.00;;
8574;SDS011;4325;42.520;27.448;2023-01-30T07:44:41;28.03;;;15.23;;
8574;SDS011;4325;42.520;27.448;2023-01-30T07:47:08;24.97;;;15.10;;
8574;SDS011;4325;42.520;27.448;2023-01-30T07:49:35;28.10;;;15.50;;
8574;SDS011;4325;42.520;27.448;2023-01-30T07:52:02;21.93;;;14.80;;
8574;SDS011;4325;42.520;27.448;2023-01-30T07:54:31;24.47;;;15.00;;
8574;SDS011;4325;42.520;27.448;2023-01-30T07:56:57;27.20;;;15.37;;
8574;SDS011;4325;42.520;27.448;2023-01-30T07:59:24;26.47;;;16.80;;
8574;SDS011;4325;42.520;27.448;2023-01-30T08:01:51;27.37;;;16.20;;
8574;SDS011;4325;42.520;27.448;2023-01-30T08:04:18;27.13;;;16.10;;
8574;SDS011;4325;42.520;27.448;2023-01-30T08:06:45;23.50;;;15.30;;
8574;SDS011;4325;42.520;27.448;2023-01-30T08:09:12;23.53;;;15.03;;
8574;SDS011;4325;42.520;27.448;2023-01-30T08:11:40;29.27;;;17.53;;
8574;SDS011;4325;42.520;27.448;2023-01-30T08:14:07;32.40;;;18.40;;
8574;SDS011;4325;42.520;27.448;2023-01-30T08:16:34;25.53;;;16.37;;
8574;SDS011;4325;42.520;27.448;2023-01-30T08:19:02;25.27;;;14.80;;
8574;SDS011;4325;42.520;27.448;2023-01-30T08:21:30;23.30;;;14.73;;
8574;SDS011;4325;42.520;27.448;2023-01-30T08:23:57;22.27;;;15.03;;
8574;SDS011;4325;42.520;27.448;2023-01-30T08:26:24;25.93;;;15.70;;
8574;SDS011;4325;42.520;27.448;2023-01-30T08:28:52;24.87;;;14.97;;
8574;SDS011;4325;42.520;27.448;2023-01-30T08:31:20;24.27;;;14.93;;
8574;SDS011;4325;42.520;27.448;2023-01-30T08:33:47;26.17;;;15.30;;
8574;SDS011;4325;42.520;27.448;2023-01-30T08:36:14;25.83;;;15.97;;
8574;SDS011;4325;42.520;27.448;2023-01-30T08:38:40;23.40;;;14.17;;
8574;SDS011;4325;42.520;27.448;2023-01-30T08:41:07;23.27;;;15.33;;
8574;SDS011;4325;42.520;27.448;2023-01-30T08:43:34;25.30;;;15.57;;
8574;SDS011;4325;42.520;27.448;2023-01-30T08:46:03;26.63;;;15.20;;
8574;SDS011;4325;42.520;27.448;2023-01-30T08:48:30;21.37;;;14.07;;
8574;SDS011;4325;42.520;27.448;2023-01-30T08:50:57;21.70;;;12.93;;
8574;SDS011;4325;42.520;27.448;2023-01-30T08:53:24;25.63;;;15.33;;
8574;SDS011;4325;42.520;27.448;2023-01-30T08:55:51;24.33;;;14.43;;
8574;SDS011;4325;42.520;27.448;2023-01-30T08:58:18;29.60;;;15.57;;
8574;SDS011;4325;42.520;27.448;2023-01-30T09:00:45;22.50;;;14.33;;
8574;SDS011;4325;42.520;27.448;2023-01-30T09:03:15;21.10;;;13.30;;
8574;SDS011;4325;42.520;27.448;2023-01-30T09:05:43;20.63;;;13.83;;
8574;SDS011;4325;42.520;27.448;2023-01-30T09:08:10;20.13;;;13.17;;
8574;SDS011;4325;42.520;27.448;2023-01-30T09:10:37;19.67;;;12.87;;
8574;SDS011;4325;42.520;27.448;2023-01-30T09:13:03;17.07;;;11.93;;
8574;SDS011;4325;42.520;27.448;2023-01-30T09:15:30;18.73;;;12.37;;
8574;SDS011;4325;42.520;27.448;2023-01-30T09:17:57;20.97;;;12.50;;
8574;SDS011;4325;42.520;27.448;2023-01-30T09:20:25;20.57;;;13.40;;
8574;SDS011;4325;42.520;27.448;2023-01-30T09:22:59;18.80;;;12.53;;
8574;SDS011;4325;42.520;27.448;2023-01-30T09:25:26;20.87;;;12.90;;
8574;SDS011;4325;42.520;27.448;2023-01-30T09:27:53;19.40;;;11.97;;
8574;SDS011;4325;42.520;27.448;2023-01-30T09:30:24;21.67;;;13.97;;
8574;SDS011;4325;42.520;27.448;2023-01-30T09:32:51;20.07;;;13.37;;
8574;SDS011;4325;42.520;27.448;2023-01-30T09:35:17;23.27;;;14.20;;
8574;SDS011;4325;42.520;27.448;2023-01-30T09:37:49;18.23;;;12.83;;
8574;SDS011;4325;42.520;27.448;2023-01-30T09:40:19;19.60;;;13.00;;
8574;SDS011;4325;42.520;27.448;2023-01-30T09:42:57;19.40;;;12.43;;
8574;SDS011;4325;42.520;27.448;2023-01-30T09:45:37;18.27;;;11.23;;
8574;SDS011;4325;42.520;27.448;2023-01-30T09:48:24;16.77;;;11.30;;
8574;SDS011;4325;42.520;27.448;2023-01-30T09:51:15;21.73;;;13.33;;
8574;SDS011;4325;42.520;27.448;2023-01-30T09:54:03;25.67;;;13.47;;
8574;SDS011;4325;42.520;27.448;2023-01-30T09:56:41;25.50;;;12.93;;
8574;SDS011;4325;42.520;27.448;2023-01-30T09:59:09;18.13;;;11.57;;
8574;SDS011;4325;42.520;27.448;2023-01-30T10:01:46;19.70;;;12.80;;
8574;SDS011;4325;42.520;27.448;2023-01-30T10:04:22;18.97;;;12.03;;
8574;SDS011;4325;42.520;27.448;2023-01-30T10:06:56;19.43;;;11.70;;
8574;SDS011;4325;42.520;27.448;2023-01-30T10:09:32;23.87;;;12.20;;
8574;SDS011;4325;42.520;27.448;2023-01-30T10:12:14;19.90;;;12.03;;
8574;SDS011;4325;42.520;27.448;2023-01-30T10:20:58;25.43;;;13.27;;
8574;SDS011;4325;42.520;27.448;2023-01-30T10:23:39;21.03;;;13.53;;
8574;SDS011;4325;42.520;27.448;2023-01-30T10:26:19;23.53;;;12.87;;
8574;SDS011;4325;42.520;27.448;2023-01-30T10:28:51;20.07;;;13.60;;
8574;SDS011;4325;42.520;27.448;2023-01-30T10:31:24;20.30;;;13.33;;
8574;SDS011;4325;42.520;27.448;2023-01-30T10:33:56;21.50;;;12.73;;
8574;SDS011;4325;42.520;27.448;2023-01-30T10:36:28;25.87;;;12.83;;
8574;SDS011;4325;42.520;27.448;2023-01-30T10:39:01;20.10;;;12.33;;
8574;SDS011;4325;42.520;27.448;2023-01-30T10:41:37;22.10;;;12.70;;
8574;SDS011;4325;42.520;27.448;2023-01-30T10:44:12;26.47;;;14.67;;
8574;SDS011;4325;42.520;27.448;2023-01-30T10:46:50;22.20;;;13.90;;
8574;SDS011;4325;42.520;27.448;2023-01-30T10:49:38;23.73;;;11.67;;
8574;SDS011;4325;42.520;27.448;2023-01-30T10:52:13;24.47;;;13.90;;
8574;SDS011;4325;42.520;27.448;2023-01-30T10:54:54;19.00;;;12.67;;
8574;SDS011;4325;42.520;27.448;2023-01-30T10:57:33;22.23;;;12.90;;
8574;SDS011;4325;42.520;27.448;2023-01-30T11:00:12;20.33;;;10.83;;
8574;SDS011;4325;42.520;27.448;2023-01-30T11:02:51;20.70;;;13.40;;
8574;SDS011;4325;42.520;27.448;2023-01-30T11:05:27;20.87;;;12.83;;
8574;SDS011;4325;42.520;27.448;2023-01-30T11:08:04;21.13;;;13.50;;
8574;SDS011;4325;42.520;27.448;2023-01-30T11:10:36;20.57;;;12.23;;
8574;SDS011;4325;42.520;27.448;2023-01-30T11:13:10;19.87;;;12.33;;
8574;SDS011;4325;42.520;27.448;2023-01-30T11:15:42;26.17;;;13.33;;
8574;SDS011;4325;42.520;27.448;2023-01-30T11:18:11;17.23;;;12.07;;
8574;SDS011;4325;42.520;27.448;2023-01-30T11:20:40;21.97;;;12.53;;
8574;SDS011;4325;42.520;27.448;2023-01-30T11:23:20;25.63;;;12.33;;
8574;SDS011;4325;42.520;27.448;2023-01-30T11:25:50;27.53;;;13.37;;
8574;SDS011;4325;42.520;27.448;2023-01-30T11:28:21;19.30;;;13.03;;
8574;SDS011;4325;42.520;27.448;2023-01-30T11:30:49;18.80;;;11.13;;
8574;SDS011;4325;42.520;27.448;2023-01-30T11:33:20;18.70;;;11.47;;
8574;SDS011;4325;42.520;27.448;2023-01-30T11:35:53;17.20;;;11.33;;
8574;SDS011;4325;42.520;27.448;2023-01-30T11:38:23;23.07;;;11.90;;
8574;SDS011;4325;42.520;27.448;2023-01-30T11:41:00;17.93;;;11.17;;
8574;SDS011;4325;42.520;27.448;2023-01-30T11:43:31;17.23;;;10.87;;
8574;SDS011;4325;42.520;27.448;2023-01-30T11:45:58;19.80;;;11.97;;
8574;SDS011;4325;42.520;27.448;2023-01-30T11:48:27;17.93;;;11.27;;
8574;SDS011;4325;42.520;27.448;2023-01-30T11:50:57;17.87;;;11.37;;
8574;SDS011;4325;42.520;27.448;2023-01-30T11:53:28;16.17;;;10.77;;
8574;SDS011;4325;42.520;27.448;2023-01-30T11:55:59;15.90;;;9.97;;
8574;SDS011;4325;42.520;27.448;2023-01-30T11:58:32;14.83;;;9.93;;
8574;SDS011;4325;42.520;27.448;2023-01-30T12:01:03;15.87;;;10.17;;
8574;SDS011;4325;42.520;27.448;2023-01-30T12:03:30;17.20;;;8.43;;
8574;SDS011;4325;42.520;27.448;2023-01-30T12:05:58;13.37;;;8.73;;
8574;SDS011;4325;42.520;27.448;2023-01-30T12:08:26;14.70;;;8.97;;
8574;SDS011;4325;42.520;27.448;2023-01-30T12:10:58;13.83;;;9.23;;
8574;SDS011;4325;42.520;27.448;2023-01-30T12:13:30;17.20;;;9.47;;
8574;SDS011;4325;42.520;27.448;2023-01-30T12:18:47;17.10;;;10.10;;
8574;SDS011;4325;42.520;27.448;2023-01-30T12:21:25;16.27;;;10.70;;
8574;SDS011;4325;42.520;27.448;2023-01-30T12:24:02;21.10;;;10.90;;
8574;SDS011;4325;42.520;27.448;2023-01-30T12:26:40;20.77;;;10.53;;
8574;SDS011;4325;42.520;27.448;2023-01-30T12:29:16;17.13;;;11.00;;
8574;SDS011;4325;42.520;27.448;2023-01-30T12:31:51;17.33;;;10.27;;
8574;SDS011;4325;42.520;27.448;2023-01-30T12:34:26;15.07;;;9.87;;
8574;SDS011;4325;42.520;27.448;2023-01-30T12:36:55;15.50;;;9.70;;
8574;SDS011;4325;42.520;27.448;2023-01-30T12:39:34;15.27;;;10.30;;
8574;SDS011;4325;42.520;27.448;2023-01-30T12:42:20;19.10;;;10.47;;
8574;SDS011;4325;42.520;27.448;2023-01-30T12:44:58;20.47;;;10.73;;
8574;SDS011;4325;42.520;27.448;2023-01-30T12:47:47;16.33;;;10.40;;
8574;SDS011;4325;42.520;27.448;2023-01-30T12:50:27;20.57;;;11.27;;
8574;SDS011;4325;42.520;27.448;2023-01-30T12:53:05;15.50;;;10.53;;
8574;SDS011;4325;42.520;27.448;2023-01-30T12:55:46;18.53;;;10.37;;
8574;SDS011;4325;42.520;27.448;2023-01-30T12:58:22;21.23;;;11.00;;
8574;SDS011;4325;42.520;27.448;2023-01-30T13:03:44;18.33;;;10.93;;
8574;SDS011;4325;42.520;27.448;2023-01-30T13:06:21;19.73;;;11.00;;
8574;SDS011;4325;42.520;27.448;2023-01-30T13:09:02;17.33;;;10.87;;
8574;SDS011;4325;42.520;27.448;2023-01-30T13:11:42;16.50;;;10.33;;
8574;SDS011;4325;42.520;27.448;2023-01-30T13:14:19;15.53;;;10.47;;
8574;SDS011;4325;42.520;27.448;2023-01-30T13:17:04;15.87;;;10.03;;
8574;SDS011;4325;42.520;27.448;2023-01-30T13:19:42;19.57;;;11.40;;
8574;SDS011;4325;42.520;27.448;2023-01-30T13:22:17;15.20;;;9.70;;
8574;SDS011;4325;42.520;27.448;2023-01-30T13:24:53;16.77;;;9.60;;
8574;SDS011;4325;42.520;27.448;2023-01-30T13:27:27;17.53;;;10.43;;
8574;SDS011;4325;42.520;27.448;2023-01-30T13:29:59;16.17;;;10.13;;
8574;SDS011;4325;42.520;27.448;2023-01-30T13:32:33;17.47;;;10.50;;
8574;SDS011;4325;42.520;27.448;2023-01-30T13:35:05;16.40;;;11.03;;
8574;SDS011;4325;42.520;27.448;2023-01-30T13:37:41;16.83;;;11.13;;
8574;SDS011;4325;42.520;27.448;2023-01-30T13:40:13;22.50;;;11.60;;
8574;SDS011;4325;42.520;27.448;2023-01-30T13:42:44;19.70;;;11.43;;
8574;SDS011;4325;42.520;27.448;2023-01-30T13:45:17;20.50;;;11.67;;
8574;SDS011;4325;42.520;27.448;2023-01-30T13:47:47;18.50;;;12.37;;
8574;SDS011;4325;42.520;27.448;2023-01-30T13:50:32;22.43;;;13.53;;
8574;SDS011;4325;42.520;27.448;2023-01-30T13:53:07;26.00;;;16.23;;
8574;SDS011;4325;42.520;27.448;2023-01-30T13:55:41;21.30;;;12.50;;
8574;SDS011;4325;42.520;27.448;2023-01-30T13:58:17;20.70;;;13.70;;
8574;SDS011;4325;42.520;27.448;2023-01-30T14:01:05;21.27;;;13.13;;
8574;SDS011;4325;42.520;27.448;2023-01-30T14:03:32;21.00;;;13.33;;
8574;SDS011;4325;42.520;27.448;2023-01-30T14:06:09;19.10;;;12.73;;
8574;SDS011;4325;42.520;27.448;2023-01-30T14:08:39;22.63;;;14.30;;
8574;SDS011;4325;42.520;27.448;2023-01-30T14:11:32;20.13;;;13.83;;
8574;SDS011;4325;42.520;27.448;2023-01-30T14:14:03;23.53;;;14.07;;
8574;SDS011;4325;42.520;27.448;2023-01-30T14:16:46;25.67;;;13.70;;
8574;SDS011;4325;42.520;27.448;2023-01-30T14:19:19;34.53;;;14.50;;
8574;SDS011;4325;42.520;27.448;2023-01-30T14:21:59;28.93;;;14.57;;
8574;SDS011;4325;42.520;27.448;2023-01-30T14:24:29;23.57;;;14.40;;
8574;SDS011;4325;42.520;27.448;2023-01-30T14:27:03;21.67;;;14.17;;
8574;SDS011;4325;42.520;27.448;2023-01-30T14:29:51;24.90;;;14.57;;
8574;SDS011;4325;42.520;27.448;2023-01-30T14:35:24;20.40;;;12.93;;
8574;SDS011;4325;42.520;27.448;2023-01-30T14:40:46;26.13;;;13.47;;
8574;SDS011;4325;42.520;27.448;2023-01-30T14:49:23;21.50;;;13.53;;
8574;SDS011;4325;42.520;27.448;2023-01-30T14:51:54;16.70;;;11.27;;
8574;SDS011;4325;42.520;27.448;2023-01-30T14:54:28;18.37;;;12.10;;
8574;SDS011;4325;42.520;27.448;2023-01-30T14:56:59;19.13;;;12.07;;
8574;SDS011;4325;42.520;27.448;2023-01-30T14:59:28;17.73;;;11.50;;
8574;SDS011;4325;42.520;27.448;2023-01-30T15:02:03;19.90;;;11.93;;
8574;SDS011;4325;42.520;27.448;2023-01-30T15:04:46;17.50;;;10.50;;
8574;SDS011;4325;42.520;27.448;2023-01-30T15:07:22;17.83;;;11.77;;
8574;SDS011;4325;42.520;27.448;2023-01-30T15:09:54;19.17;;;11.33;;
8574;SDS011;4325;42.520;27.448;2023-01-30T15:12:36;24.47;;;11.23;;
8574;SDS011;4325;42.520;27.448;2023-01-30T15:15:20;19.13;;;10.90;;
8574;SDS011;4325;42.520;27.448;2023-01-30T15:17:58;19.70;;;11.67;;
8574;SDS011;4325;42.520;27.448;2023-01-30T15:20:48;20.33;;;11.60;;
8574;SDS011;4325;42.520;27.448;2023-01-30T15:23:40;19.97;;;11.50;;
8574;SDS011;4325;42.520;27.448;2023-01-30T15:26:29;17.93;;;11.27;;